createdAt,value
2023-03-10T00:01:17.301Z,7.63
2023-03-10T00:03:44.712Z,7.40
2023-03-10T00:06:15.111Z,7.90
2023-03-10T00:08:43.030Z,7.15
2023-03-10T00:11:11.062Z,8.73
2023-03-10T00:13:38.302Z,8.30
2023-03-10T00:16:06.249Z,7.68
2023-03-10T00:18:34.573Z,8.18
2023-03-10T00:21:05.115Z,7.70
2023-03-10T00:23:32.409Z,9.00
2023-03-10T00:26:01.027Z,8.35
2023-03-10T00:28:29.207Z,7.78
2023-03-10T00:31:08.120Z,8.48
2023-03-10T00:33:35.992Z,8.70
2023-03-10T00:36:15.114Z,8.00
2023-03-10T00:38:43.654Z,8.82
2023-03-10T00:41:20.087Z,9.13
2023-03-10T00:43:48.010Z,8.90
2023-03-10T00:46:15.577Z,9.15
2023-03-10T00:48:43.221Z,8.98
2023-03-10T00:51:10.723Z,9.70
2023-03-10T00:53:40.054Z,8.85
2023-03-10T00:56:16.352Z,9.23
2023-03-10T00:58:44.178Z,8.73
2023-03-10T01:01:21.783Z,9.38
2023-03-10T01:03:52.226Z,8.65
2023-03-10T01:06:20.059Z,8.25
2023-03-10T01:08:47.318Z,8.52
2023-03-10T01:11:19.337Z,8.57
2023-03-10T01:16:14.796Z,8.80
2023-03-10T01:18:43.465Z,7.53
2023-03-10T01:21:16.483Z,9.07
2023-03-10T01:23:43.877Z,8.50
2023-03-10T01:26:11.488Z,9.90
2023-03-10T01:28:41.377Z,9.02
2023-03-10T01:31:08.831Z,9.23
2023-03-10T01:33:41.801Z,8.82
2023-03-10T01:36:09.930Z,8.55
2023-03-10T01:38:38.168Z,8.07
2023-03-10T01:41:06.437Z,8.43
2023-03-10T01:43:42.186Z,10.52
2023-03-10T01:46:37.334Z,8.68
2023-03-10T01:49:19.836Z,8.07
2023-03-10T01:51:54.601Z,8.68
2023-03-10T01:54:26.657Z,8.88
2023-03-10T01:56:55.178Z,8.75
2023-03-10T01:59:23.819Z,8.23
2023-03-10T02:01:52.668Z,9.35
2023-03-10T02:04:27.443Z,7.82
2023-03-10T02:06:55.889Z,9.32
2023-03-10T02:09:23.857Z,8.60
2023-03-10T02:11:51.625Z,8.65
2023-03-10T02:14:19.901Z,8.93
2023-03-10T02:16:47.363Z,8.73
2023-03-10T02:19:37.274Z,9.30
2023-03-10T02:22:12.638Z,9.70
2023-03-10T02:25:28.540Z,9.43
2023-03-10T02:27:58.406Z,9.07
2023-03-10T02:30:29.843Z,9.40
2023-03-10T02:33:00.698Z,9.35
2023-03-10T02:35:28.321Z,11.02
2023-03-10T02:37:55.458Z,11.10
2023-03-10T02:40:25.654Z,11.55
2023-03-10T02:42:53.076Z,10.95
2023-03-10T02:45:20.464Z,10.65
2023-03-10T02:47:47.758Z,9.73
2023-03-10T02:50:17.767Z,9.65
2023-03-10T02:53:00.238Z,9.82
2023-03-10T02:55:27.424Z,11.40
2023-03-10T02:57:55.190Z,10.77
2023-03-10T03:00:22.788Z,10.73
2023-03-10T03:02:50.543Z,9.90
2023-03-10T03:05:17.946Z,10.75
2023-03-10T03:07:45.207Z,10.65
2023-03-10T03:10:12.837Z,10.52
2023-03-10T03:12:40.769Z,11.07
2023-03-10T03:15:08.755Z,10.43
2023-03-10T03:17:36.131Z,11.18
2023-03-10T03:20:12.150Z,10.32
2023-03-10T03:22:39.576Z,11.50
2023-03-10T03:25:07.335Z,11.77
2023-03-10T03:27:37.477Z,11.77
2023-03-10T03:30:10.460Z,11.02
2023-03-10T03:32:38.124Z,10.73
2023-03-10T03:35:16.654Z,11.00
2023-03-10T03:37:47.069Z,11.00
2023-03-10T03:40:14.875Z,11.20
2023-03-10T03:42:47.466Z,12.13
2023-03-10T03:45:16.865Z,10.85
2023-03-10T03:47:45.141Z,13.30
2023-03-10T03:50:14.455Z,14.05
2023-03-10T03:52:42.787Z,11.70
2023-03-10T03:55:11.781Z,10.55
2023-03-10T03:57:39.696Z,11.90
2023-03-10T04:00:09.336Z,11.27
2023-03-10T04:02:36.799Z,11.32
2023-03-10T04:05:04.991Z,11.95
2023-03-10T04:07:32.290Z,11.07
2023-03-10T04:09:59.649Z,11.68
2023-03-10T04:12:27.573Z,12.20
2023-03-10T04:14:54.754Z,12.18
2023-03-10T04:17:21.993Z,12.30
2023-03-10T04:20:00.776Z,11.55
2023-03-10T04:22:33.422Z,11.60
2023-03-10T04:25:00.587Z,11.07
2023-03-10T04:27:28.363Z,11.32
2023-03-10T04:29:57.754Z,12.57
2023-03-10T04:32:26.017Z,11.60
2023-03-10T04:34:53.126Z,13.18
2023-03-10T04:37:21.973Z,10.68
2023-03-10T04:39:49.252Z,13.38
2023-03-10T04:42:16.442Z,14.05
2023-03-10T04:44:43.841Z,14.45
2023-03-10T04:47:11.090Z,15.63
2023-03-10T04:49:38.804Z,14.10
2023-03-10T04:52:06.588Z,14.52
2023-03-10T04:54:33.696Z,12.75
2023-03-10T04:57:01.015Z,13.65
2023-03-10T04:59:28.447Z,14.32
2023-03-10T05:01:55.774Z,12.70
2023-03-10T05:04:23.647Z,13.85
2023-03-10T05:06:52.303Z,13.75
2023-03-10T05:09:19.753Z,13.68
2023-03-10T05:11:48.031Z,13.40
2023-03-10T05:14:15.964Z,12.48
2023-03-10T05:16:43.468Z,13.07
2023-03-10T05:19:10.797Z,12.88
2023-03-10T05:21:38.214Z,13.38
2023-03-10T05:24:05.804Z,11.50
2023-03-10T05:26:34.811Z,12.25
2023-03-10T05:29:06.664Z,12.82
2023-03-10T05:31:35.928Z,12.40
2023-03-10T05:34:03.013Z,12.13
2023-03-10T05:36:30.216Z,11.63
2023-03-10T05:38:57.692Z,13.05
2023-03-10T05:41:25.289Z,12.73
2023-03-10T05:43:52.792Z,12.48
2023-03-10T05:46:20.068Z,12.70
2023-03-10T05:48:52.030Z,12.32
2023-03-10T05:51:19.164Z,13.10
2023-03-10T05:53:48.417Z,12.45
2023-03-10T05:56:17.876Z,12.35
2023-03-10T05:58:45.988Z,12.35
2023-03-10T06:01:13.845Z,13.13
2023-03-10T06:03:41.043Z,13.35
2023-03-10T06:06:08.481Z,13.40
2023-03-10T06:08:35.841Z,13.43
2023-03-10T06:11:04.357Z,14.07
2023-03-10T06:13:35.007Z,14.10
2023-03-10T06:16:05.852Z,13.20
2023-03-10T06:18:33.967Z,12.00
2023-03-10T06:21:05.238Z,12.50
2023-03-10T06:23:34.832Z,10.82
2023-03-10T06:26:03.037Z,12.63
2023-03-10T06:28:33.380Z,12.00
2023-03-10T06:31:05.008Z,10.68
2023-03-10T06:33:32.771Z,14.27
2023-03-10T06:35:59.943Z,11.00
2023-03-10T06:38:30.581Z,13.65
2023-03-10T06:40:58.372Z,14.85
2023-03-10T06:43:25.876Z,16.38
2023-03-10T06:45:55.615Z,18.98
2023-03-10T06:48:25.299Z,20.30
2023-03-10T06:50:52.673Z,14.70
2023-03-10T06:53:21.465Z,17.38
2023-03-10T06:56:09.029Z,16.13
2023-03-10T06:58:37.039Z,16.15
2023-03-10T07:01:05.374Z,12.60
2023-03-10T07:03:32.601Z,12.18
2023-03-10T07:06:00.156Z,10.85
2023-03-10T07:08:28.707Z,12.93
2023-03-10T07:10:56.597Z,10.00
2023-03-10T07:13:23.965Z,9.35
2023-03-10T07:15:51.036Z,12.02
2023-03-10T07:18:18.149Z,11.07
2023-03-10T07:20:46.131Z,10.07
2023-03-10T07:23:13.662Z,11.10
2023-03-10T07:25:40.987Z,9.75
2023-03-10T07:28:08.568Z,12.43
2023-03-10T07:30:40.100Z,16.92
2023-03-10T07:33:07.075Z,11.65
2023-03-10T07:35:37.450Z,11.20
2023-03-10T07:38:04.868Z,12.30
2023-03-10T07:40:32.046Z,13.20
2023-03-10T07:42:59.407Z,10.90
2023-03-10T07:45:27.160Z,12.80
2023-03-10T07:47:54.718Z,11.20
2023-03-10T07:50:22.653Z,10.63
2023-03-10T07:52:52.670Z,11.57
2023-03-10T07:55:20.024Z,10.38
2023-03-10T07:58:01.324Z,10.30
2023-03-10T08:00:28.784Z,11.43
2023-03-10T08:02:56.004Z,10.73
2023-03-10T08:05:23.136Z,10.10
2023-03-10T08:07:50.235Z,9.32
2023-03-10T08:10:18.929Z,11.00
2023-03-10T08:12:46.002Z,11.30
2023-03-10T08:15:14.795Z,10.50
2023-03-10T08:17:41.905Z,9.80
2023-03-10T08:20:10.725Z,10.80
2023-03-10T08:22:37.816Z,9.70
2023-03-10T08:25:05.271Z,11.30
2023-03-10T08:27:32.353Z,11.52
2023-03-10T08:29:59.833Z,11.10
2023-03-10T08:32:27.262Z,9.25
2023-03-10T08:34:54.482Z,9.98
2023-03-10T08:37:21.574Z,10.02
2023-03-10T08:39:50.215Z,9.60
2023-03-10T08:42:17.370Z,10.25
2023-03-10T08:44:44.580Z,10.00
2023-03-10T08:47:11.722Z,11.27
2023-03-10T08:49:39.029Z,10.55
2023-03-10T08:52:09.411Z,9.85
2023-03-10T08:54:36.599Z,10.57
2023-03-10T08:57:04.005Z,11.48
2023-03-10T08:59:31.426Z,10.32
2023-03-10T09:02:03.085Z,9.52
2023-03-10T09:04:30.281Z,10.93
2023-03-10T09:06:59.902Z,9.63
2023-03-10T09:09:27.424Z,11.52
2023-03-10T09:11:54.735Z,10.27
2023-03-10T09:14:22.371Z,10.27
2023-03-10T09:16:49.606Z,9.15
2023-03-10T09:19:17.127Z,8.20
2023-03-10T09:21:44.463Z,10.05
2023-03-10T09:24:12.652Z,11.55
2023-03-10T09:26:42.868Z,9.70
2023-03-10T09:29:13.274Z,10.20
2023-03-10T09:31:40.594Z,10.27
2023-03-10T09:34:08.728Z,10.45
2023-03-10T09:36:36.123Z,11.65
2023-03-10T09:39:05.839Z,14.07
2023-03-10T09:41:48.188Z,13.65
2023-03-10T09:47:10.891Z,13.38
2023-03-10T09:49:40.695Z,12.68
2023-03-10T09:52:38.744Z,10.55
2023-03-10T09:55:29.874Z,11.57
2023-03-10T09:57:57.660Z,11.80
2023-03-10T10:00:34.788Z,11.35
2023-03-10T10:03:13.311Z,11.68
2023-03-10T10:05:43.114Z,13.02
2023-03-10T10:08:49.042Z,11.40
2023-03-10T10:11:19.498Z,11.10
2023-03-10T10:13:46.983Z,11.90
2023-03-10T10:16:34.633Z,13.00
2023-03-10T10:19:15.403Z,11.82
2023-03-10T10:21:50.776Z,11.15
2023-03-10T10:24:18.186Z,11.35
2023-03-10T10:26:45.599Z,10.38
2023-03-10T10:29:47.283Z,11.68
2023-03-10T10:32:16.636Z,10.57
2023-03-10T10:34:45.792Z,10.32
2023-03-10T10:37:35.568Z,10.32
2023-03-10T10:40:24.138Z,11.13
2023-03-10T10:42:55.802Z,11.57
2023-03-10T10:45:35.692Z,12.40
2023-03-10T10:48:03.874Z,10.38
2023-03-10T10:50:34.485Z,12.82
2023-03-10T10:53:13.919Z,10.75
2023-03-10T10:55:42.318Z,11.10
2023-03-10T10:58:35.946Z,10.77
2023-03-10T11:01:08.933Z,11.95
2023-03-10T11:03:39.854Z,11.65
2023-03-10T11:06:32.789Z,13.23
2023-03-10T11:09:19.091Z,11.80
2023-03-10T11:12:02.807Z,11.68
2023-03-10T11:14:35.364Z,13.23
2023-03-10T11:17:26.408Z,12.57
2023-03-10T11:20:17.773Z,11.90
2023-03-10T11:23:05.278Z,11.73
2023-03-10T11:25:58.038Z,11.98
2023-03-10T11:28:58.461Z,12.70
2023-03-10T11:31:47.084Z,13.48
2023-03-10T11:34:30.599Z,14.73
2023-03-10T11:37:16.509Z,15.40
2023-03-10T11:39:46.573Z,15.63
2023-03-10T11:42:46.809Z,16.13
2023-03-10T11:45:25.549Z,17.15
2023-03-10T11:48:27.056Z,17.23
2023-03-10T11:50:59.279Z,18.75
2023-03-10T11:53:50.052Z,22.38
2023-03-10T11:56:20.177Z,24.02
2023-03-10T11:59:01.229Z,20.50
2023-03-10T12:01:49.146Z,29.77
2023-03-10T12:04:22.229Z,34.58
2023-03-10T12:07:12.460Z,27.92
2023-03-10T12:10:02.350Z,27.42
2023-03-10T12:12:37.784Z,26.23
2023-03-10T12:15:11.989Z,27.58
2023-03-10T12:17:40.262Z,24.90
2023-03-10T12:20:13.529Z,25.77
2023-03-10T12:22:42.962Z,28.90
2023-03-10T12:25:32.859Z,32.00
2023-03-10T12:28:22.512Z,30.23
2023-03-10T12:30:50.557Z,29.83
2023-03-10T12:33:34.244Z,24.13
2023-03-10T12:36:26.080Z,22.38
2023-03-10T12:39:14.308Z,19.27
2023-03-10T12:42:01.042Z,17.70
2023-03-10T12:44:42.413Z,17.85
2023-03-10T12:47:09.602Z,19.60
2023-03-10T12:49:51.002Z,20.20
2023-03-10T12:52:36.228Z,27.95
2023-03-10T12:55:21.427Z,25.95
2023-03-10T12:58:07.024Z,24.77
2023-03-10T13:00:49.539Z,22.95
2023-03-10T13:03:20.032Z,18.63
2023-03-10T13:05:56.284Z,18.83
2023-03-10T13:08:31.672Z,17.80
2023-03-10T13:10:59.508Z,19.33
2023-03-10T13:13:33.677Z,18.77
2023-03-10T13:16:03.676Z,20.00
2023-03-10T13:18:31.403Z,19.73
2023-03-10T13:21:01.919Z,22.67
2023-03-10T13:23:34.814Z,23.80
2023-03-10T13:26:08.259Z,23.70
2023-03-10T13:28:36.587Z,24.15
2023-03-10T13:31:14.751Z,27.73
2023-03-10T13:33:52.670Z,26.58
2023-03-10T13:36:34.352Z,27.35
2023-03-10T13:39:15.647Z,23.92
2023-03-10T13:41:51.369Z,23.08
2023-03-10T13:44:21.563Z,21.48
2023-03-10T13:46:56.895Z,21.40
2023-03-10T13:49:26.517Z,20.60
2023-03-10T13:51:56.774Z,20.52
2023-03-10T13:54:29.740Z,20.90
2023-03-10T13:57:18.229Z,21.27
2023-03-10T13:59:47.075Z,23.80
2023-03-10T14:02:28.686Z,25.17
2023-03-10T14:05:00.026Z,23.90
2023-03-10T14:07:58.748Z,23.92
2023-03-10T14:10:25.881Z,24.73
2023-03-10T14:12:54.558Z,27.10
2023-03-10T14:15:27.712Z,28.98
2023-03-10T14:18:07.118Z,31.27
2023-03-10T14:20:42.066Z,22.35
2023-03-10T14:23:28.224Z,24.52
2023-03-10T14:26:00.568Z,23.52
2023-03-10T14:28:32.420Z,22.67
2023-03-10T14:31:02.991Z,22.08
2023-03-10T14:33:30.097Z,23.75
2023-03-10T14:35:57.192Z,21.45
2023-03-10T14:38:24.407Z,18.23
2023-03-10T14:40:56.063Z,20.92
2023-03-10T14:43:25.787Z,15.50
2023-03-10T14:45:55.399Z,21.05
2023-03-10T14:48:27.981Z,21.92
2023-03-10T14:50:56.965Z,23.00
2023-03-10T14:53:27.864Z,23.67
2023-03-10T14:56:01.657Z,25.90
2023-03-10T14:58:36.277Z,22.27
2023-03-10T15:01:03.686Z,21.65
2023-03-10T15:03:32.832Z,25.63
2023-03-10T15:06:00.037Z,25.70
2023-03-10T15:08:29.866Z,24.38
2023-03-10T15:10:57.871Z,25.00
2023-03-10T15:13:25.275Z,25.15
2023-03-10T15:15:53.894Z,21.02
2023-03-10T15:18:27.140Z,25.70
2023-03-10T15:21:04.245Z,30.23
2023-03-10T15:23:31.534Z,31.52
2023-03-10T15:26:09.635Z,33.47
2023-03-10T15:28:37.651Z,32.55
2023-03-10T15:31:05.374Z,31.05
2023-03-10T15:33:33.039Z,30.52
2023-03-10T15:36:00.230Z,36.65
2023-03-10T15:38:27.290Z,28.45
2023-03-10T15:40:54.726Z,29.67
2023-03-10T15:43:22.082Z,30.80
2023-03-10T15:45:52.048Z,33.30
2023-03-10T15:48:19.665Z,30.15
2023-03-10T15:50:49.715Z,28.08
2023-03-10T15:53:19.398Z,26.15
2023-03-10T15:55:46.630Z,24.42
2023-03-10T15:58:15.829Z,22.90
2023-03-10T16:00:44.033Z,27.73
2023-03-10T16:03:12.478Z,27.83
2023-03-10T16:05:47.912Z,34.20
2023-03-10T16:08:15.526Z,31.70
2023-03-10T16:10:54.932Z,28.90
2023-03-10T16:13:22.630Z,30.20
2023-03-10T16:15:49.821Z,31.42
2023-03-10T16:18:17.241Z,28.63
2023-03-10T16:20:44.356Z,30.30
2023-03-10T16:23:11.376Z,25.63
2023-03-10T16:25:38.690Z,26.38
2023-03-10T16:28:14.017Z,29.88
2023-03-10T16:30:41.663Z,32.28
2023-03-10T16:33:11.730Z,38.78
2023-03-10T16:35:39.348Z,36.83
2023-03-10T16:38:09.217Z,33.97
2023-03-10T16:40:36.559Z,33.75
2023-03-10T16:43:03.725Z,35.75
2023-03-10T16:45:31.258Z,35.85
2023-03-10T16:47:58.888Z,32.40
2023-03-10T16:50:26.055Z,27.33
2023-03-10T16:52:56.860Z,29.38
2023-03-10T16:55:24.221Z,25.88
2023-03-10T16:57:51.542Z,30.00
2023-03-10T17:00:21.229Z,33.17
2023-03-10T17:02:49.219Z,38.30
2023-03-10T17:05:18.197Z,34.10
2023-03-10T17:07:55.142Z,29.88
2023-03-10T17:10:23.335Z,26.30
2023-03-10T17:12:50.517Z,24.23
2023-03-10T17:15:18.095Z,24.95
2023-03-10T17:17:45.309Z,27.50
2023-03-10T17:20:14.005Z,25.67
2023-03-10T17:22:41.585Z,27.70
2023-03-10T17:25:09.562Z,26.80
2023-03-10T17:27:36.611Z,31.05
2023-03-10T17:30:04.152Z,32.78
2023-03-10T17:32:33.881Z,34.28
2023-03-10T17:35:01.300Z,36.90
2023-03-10T17:37:28.390Z,37.35
2023-03-10T17:39:55.723Z,36.80
2023-03-10T17:42:23.255Z,32.05
2023-03-10T17:44:50.717Z,31.95
2023-03-10T17:47:17.695Z,31.17
2023-03-10T17:49:45.570Z,31.90
2023-03-10T17:52:12.721Z,34.70
2023-03-10T17:54:42.537Z,33.53
2023-03-10T17:57:12.352Z,33.60
2023-03-10T17:59:39.703Z,37.25
2023-03-10T18:02:06.933Z,34.88
2023-03-10T18:04:36.571Z,32.80
2023-03-10T18:07:03.821Z,30.27
2023-03-10T18:09:31.028Z,30.73
2023-03-10T18:11:58.443Z,29.88
2023-03-10T18:15:25.376Z,29.55
2023-03-10T18:17:52.628Z,28.55
2023-03-10T18:20:19.925Z,29.80
2023-03-10T18:22:47.112Z,30.88
2023-03-10T18:25:14.289Z,29.85
2023-03-10T18:27:43.407Z,31.88
2023-03-10T18:30:11.976Z,35.78
2023-03-10T18:32:39.373Z,32.85
2023-03-10T18:35:07.172Z,31.15
2023-03-10T18:37:34.313Z,31.83
2023-03-10T18:40:01.606Z,30.02
2023-03-10T18:42:29.012Z,30.25
2023-03-10T18:44:56.175Z,32.13
2023-03-10T18:47:23.280Z,30.80
2023-03-10T18:49:50.350Z,32.50
2023-03-10T18:52:17.455Z,33.50
2023-03-10T18:54:45.334Z,33.05
2023-03-10T18:57:15.757Z,29.98
2023-03-10T18:59:42.801Z,30.83
2023-03-10T19:02:14.317Z,30.35
2023-03-10T19:04:41.528Z,28.45
2023-03-10T19:07:08.680Z,29.02
2023-03-10T19:09:36.409Z,31.42
2023-03-10T19:12:03.802Z,31.55
2023-03-10T19:14:33.304Z,32.80
2023-03-10T19:17:00.453Z,32.80
2023-03-10T19:19:30.677Z,33.95
2023-03-10T19:21:57.709Z,35.22
2023-03-10T19:24:25.624Z,36.65
2023-03-10T19:26:52.706Z,35.55
2023-03-10T19:29:20.093Z,37.95
2023-03-10T19:31:47.572Z,37.47
2023-03-10T19:34:14.856Z,36.08
2023-03-10T19:36:42.204Z,38.22
2023-03-10T19:39:09.504Z,37.47
2023-03-10T19:41:39.478Z,38.53
2023-03-10T19:44:08.624Z,37.47
2023-03-10T19:46:36.022Z,38.38
2023-03-10T19:49:12.278Z,36.40
2023-03-10T19:51:40.771Z,41.22
2023-03-10T19:54:09.672Z,43.85
2023-03-10T19:56:39.307Z,44.70
2023-03-10T19:59:06.776Z,44.40
2023-03-10T20:01:34.084Z,42.88
2023-03-10T20:04:02.681Z,44.72
2023-03-10T20:06:30.278Z,39.15
2023-03-10T20:08:57.650Z,36.10
2023-03-10T20:11:24.842Z,35.90
2023-03-10T20:13:53.191Z,38.90
2023-03-10T20:16:22.756Z,42.25
2023-03-10T20:18:50.061Z,39.50
2023-03-10T20:21:17.405Z,35.83
2023-03-10T20:23:47.715Z,40.38
2023-03-10T20:26:16.371Z,43.22
2023-03-10T20:28:43.993Z,43.88
2023-03-10T20:31:18.909Z,38.33
2023-03-10T20:33:46.417Z,35.42
2023-03-10T20:36:16.205Z,32.95
2023-03-10T20:38:47.410Z,29.25
2023-03-10T20:41:16.398Z,28.98
2023-03-10T20:43:44.311Z,28.42
2023-03-10T20:46:12.194Z,27.73
2023-03-10T20:48:39.457Z,30.13
2023-03-10T20:51:07.142Z,28.17
2023-03-10T20:53:37.916Z,29.13
2023-03-10T20:56:10.660Z,29.48
2023-03-10T20:58:38.509Z,33.40
2023-03-10T21:01:05.747Z,33.92
2023-03-10T21:03:32.919Z,33.85
2023-03-10T21:05:59.971Z,34.55
2023-03-10T21:08:27.273Z,33.75
2023-03-10T21:10:54.495Z,29.75
2023-03-10T21:13:21.806Z,32.42
2023-03-10T21:15:48.968Z,29.63
2023-03-10T21:18:16.226Z,29.38
2023-03-10T21:20:43.790Z,30.88
2023-03-10T21:23:11.171Z,31.13
2023-03-10T21:25:38.470Z,31.40
2023-03-10T21:28:05.529Z,33.22
2023-03-10T21:30:33.761Z,31.60
2023-03-10T21:33:01.178Z,30.15
2023-03-10T21:35:32.329Z,32.17
2023-03-10T21:38:00.074Z,30.33
2023-03-10T21:40:29.426Z,31.52
2023-03-10T21:42:56.714Z,31.88
2023-03-10T21:45:26.852Z,32.28
2023-03-10T21:47:54.158Z,28.65
2023-03-10T21:50:21.356Z,28.70
2023-03-10T21:52:48.611Z,29.90
2023-03-10T21:55:19.849Z,27.73
2023-03-10T21:57:47.575Z,25.55
2023-03-10T22:00:24.170Z,26.42
2023-03-10T22:02:53.069Z,28.70
2023-03-10T22:05:20.821Z,30.15
2023-03-10T22:07:48.503Z,28.88
2023-03-10T22:10:18.121Z,28.48
2023-03-10T22:12:45.683Z,27.33
2023-03-10T22:15:18.936Z,27.90
2023-03-10T22:17:46.823Z,25.73
2023-03-10T22:20:18.580Z,27.55
2023-03-10T22:22:45.814Z,25.23
2023-03-10T22:25:14.784Z,24.08
2023-03-10T22:27:43.228Z,25.40
2023-03-10T22:30:11.448Z,20.83
2023-03-10T22:32:38.576Z,20.60
2023-03-10T22:35:06.284Z,20.02
2023-03-10T22:37:33.355Z,19.35
2023-03-10T22:40:01.323Z,19.52
2023-03-10T22:42:29.948Z,17.48
2023-03-10T22:44:57.060Z,18.90
2023-03-10T22:47:24.431Z,19.80
2023-03-10T22:49:51.632Z,19.40
2023-03-10T22:52:19.653Z,20.08
2023-03-10T22:54:47.384Z,18.27
2023-03-10T22:57:17.795Z,17.95
2023-03-10T22:59:54.134Z,16.55
2023-03-10T23:02:22.141Z,16.40
2023-03-10T23:04:50.236Z,17.10
2023-03-10T23:07:18.613Z,15.68
2023-03-10T23:09:46.152Z,17.13
2023-03-10T23:12:15.541Z,15.18
2023-03-10T23:14:42.870Z,15.40
2023-03-10T23:17:10.687Z,15.93
2023-03-10T23:19:37.935Z,14.80
2023-03-10T23:22:05.226Z,15.00
2023-03-10T23:24:32.568Z,14.90
2023-03-10T23:26:59.838Z,14.10
2023-03-10T23:29:29.130Z,14.15
2023-03-10T23:31:56.297Z,13.45
2023-03-10T23:34:23.487Z,14.48
2023-03-10T23:36:50.616Z,13.13
2023-03-10T23:39:20.197Z,13.75
2023-03-10T23:41:49.377Z,13.82
2023-03-10T23:44:16.885Z,12.75
2023-03-10T23:46:44.078Z,12.38
2023-03-10T23:49:11.223Z,12.43
2023-03-10T23:51:38.603Z,12.50
2023-03-10T23:54:08.307Z,13.82
2023-03-10T23:56:35.612Z,11.90
2023-03-10T23:59:03.182Z,11.70
